French Camp, Mississippi
Current Conditions -  °F | °C
As of 3:15 PM on Monday 22 Dec 2014 (Local Time) from KSTF Reporting Station
Haze Haze  
Wind Chill: 54°   Ceiling: 300
Heat Index: 54°   Visibility: 1.2mi
Dew Point: 54°   Wind: 8mph
Humidity: 100%   Direction: 110°ESE
Pressure: 29.71"   Gusts: NA
Location:  33.29°N, 89.4°W
Report Text: KSTF 222115Z AUTO 11007KT 1 1/4SM BR OVC003 12/12 A2971 RMK AO2 LTG DSNT E
Loading
Personal Weather Stations






























Interactive Weather Map New forecast layout! Learn more

10-Day Weather Forecast

Advertisements
Track Severe Weather on mobile